sensor_id;sensor_type;location;lat;lon;timestamp;temperature;humidity
53268;DHT22;39156;51.176;6.738;2023-06-22T00:01:11;23.50;48.20
53268;DHT22;39156;51.176;6.738;2023-06-22T00:03:37;23.50;48.20
53268;DHT22;39156;51.176;6.738;2023-06-22T00:06:03;23.50;48.40
53268;DHT22;39156;51.176;6.738;2023-06-22T00:08:28;23.50;48.50
53268;DHT22;39156;51.176;6.738;2023-06-22T00:10:54;23.40;48.50
53268;DHT22;39156;51.176;6.738;2023-06-22T00:13:20;23.50;48.50
53268;DHT22;39156;51.176;6.738;2023-06-22T00:15:45;23.40;48.60
53268;DHT22;39156;51.176;6.738;2023-06-22T00:18:11;23.40;48.70
53268;DHT22;39156;51.176;6.738;2023-06-22T00:20:39;23.30;48.50
53268;DHT22;39156;51.176;6.738;2023-06-22T00:23:05;23.40;48.70
53268;DHT22;39156;51.176;6.738;2023-06-22T00:25:35;23.40;48.10
53268;DHT22;39156;51.176;6.738;2023-06-22T00:28:02;23.30;48.50
53268;DHT22;39156;51.176;6.738;2023-06-22T00:30:30;23.30;48.70
53268;DHT22;39156;51.176;6.738;2023-06-22T00:32:55;23.30;48.80
53268;DHT22;39156;51.176;6.738;2023-06-22T00:35:21;23.20;48.70
53268;DHT22;39156;51.176;6.738;2023-06-22T00:37:47;23.20;48.90
53268;DHT22;39156;51.176;6.738;2023-06-22T00:40:13;23.20;49.00
53268;DHT22;39156;51.176;6.738;2023-06-22T00:42:40;23.20;49.10
53268;DHT22;39156;51.176;6.738;2023-06-22T00:45:07;23.10;49.00
53268;DHT22;39156;51.176;6.738;2023-06-22T00:47:36;23.10;49.00
53268;DHT22;39156;51.176;6.738;2023-06-22T00:50:04;23.00;49.00
53268;DHT22;39156;51.176;6.738;2023-06-22T00:52:32;23.00;49.10
53268;DHT22;39156;51.176;6.738;2023-06-22T00:55:02;23.00;49.20
53268;DHT22;39156;51.176;6.738;2023-06-22T00:57:28;22.90;49.30
53268;DHT22;39156;51.176;6.738;2023-06-22T00:59:54;22.90;49.30
53268;DHT22;39156;51.176;6.738;2023-06-22T01:02:20;22.90;49.50
53268;DHT22;39156;51.176;6.738;2023-06-22T01:04:46;22.90;49.70
53268;DHT22;39156;51.176;6.738;2023-06-22T01:07:43;22.90;49.80
53268;DHT22;39156;51.176;6.738;2023-06-22T01:10:26;22.80;50.10
53268;DHT22;39156;51.176;6.738;2023-06-22T01:13:15;22.80;50.30
53268;DHT22;39156;51.176;6.738;2023-06-22T01:15:57;22.80;50.40
53268;DHT22;39156;51.176;6.738;2023-06-22T01:18:45;22.60;50.40
53268;DHT22;39156;51.176;6.738;2023-06-22T01:21:16;22.60;50.80
53268;DHT22;39156;51.176;6.738;2023-06-22T01:27:05;22.50;50.90
53268;DHT22;39156;51.176;6.738;2023-06-22T01:29:39;22.50;51.00
53268;DHT22;39156;51.176;6.738;2023-06-22T01:32:06;22.50;51.50
53268;DHT22;39156;51.176;6.738;2023-06-22T01:34:33;22.50;51.80
53268;DHT22;39156;51.176;6.738;2023-06-22T01:37:00;22.40;51.90
53268;DHT22;39156;51.176;6.738;2023-06-22T01:39:27;22.40;52.00
53268;DHT22;39156;51.176;6.738;2023-06-22T01:41:54;22.40;52.20
53268;DHT22;39156;51.176;6.738;2023-06-22T01:44:20;22.40;52.30
53268;DHT22;39156;51.176;6.738;2023-06-22T01:46:47;22.40;52.30
53268;DHT22;39156;51.176;6.738;2023-06-22T01:49:14;22.40;52.50
53268;DHT22;39156;51.176;6.738;2023-06-22T01:51:40;22.30;52.50
53268;DHT22;39156;51.176;6.738;2023-06-22T01:54:06;22.30;52.70
53268;DHT22;39156;51.176;6.738;2023-06-22T01:56:33;22.30;52.80
53268;DHT22;39156;51.176;6.738;2023-06-22T02:01:42;22.30;53.00
53268;DHT22;39156;51.176;6.738;2023-06-22T02:04:13;22.30;53.30
53268;DHT22;39156;51.176;6.738;2023-06-22T02:06:46;22.30;53.30
53268;DHT22;39156;51.176;6.738;2023-06-22T02:09:16;22.20;53.30
53268;DHT22;39156;51.176;6.738;2023-06-22T02:11:45;22.20;53.60
53268;DHT22;39156;51.176;6.738;2023-06-22T02:14:13;22.20;53.60
53268;DHT22;39156;51.176;6.738;2023-06-22T02:16:39;22.20;53.70
53268;DHT22;39156;51.176;6.738;2023-06-22T02:19:06;22.10;53.70
53268;DHT22;39156;51.176;6.738;2023-06-22T02:21:32;22.10;53.80
53268;DHT22;39156;51.176;6.738;2023-06-22T02:23:58;22.20;54.00
53268;DHT22;39156;51.176;6.738;2023-06-22T02:26:25;22.10;54.10
53268;DHT22;39156;51.176;6.738;2023-06-22T02:28:51;22.10;54.20
53268;DHT22;39156;51.176;6.738;2023-06-22T02:31:18;22.10;54.40
53268;DHT22;39156;51.176;6.738;2023-06-22T02:33:44;22.00;54.40
53268;DHT22;39156;51.176;6.738;2023-06-22T02:36:10;22.00;54.50
53268;DHT22;39156;51.176;6.738;2023-06-22T02:38:40;22.00;54.60
53268;DHT22;39156;51.176;6.738;2023-06-22T02:41:14;22.00;54.70
53268;DHT22;39156;51.176;6.738;2023-06-22T02:43:46;22.00;54.80
53268;DHT22;39156;51.176;6.738;2023-06-22T02:46:13;21.90;54.90
53268;DHT22;39156;51.176;6.738;2023-06-22T02:48:40;22.00;55.10
53268;DHT22;39156;51.176;6.738;2023-06-22T02:51:06;21.90;55.10
53268;DHT22;39156;51.176;6.738;2023-06-22T02:53:32;22.00;53.90
53268;DHT22;39156;51.176;6.738;2023-06-22T02:55:58;22.00;55.00
53268;DHT22;39156;51.176;6.738;2023-06-22T02:58:23;22.00;55.10
53268;DHT22;39156;51.176;6.738;2023-06-22T03:00:49;21.90;55.10
53268;DHT22;39156;51.176;6.738;2023-06-22T03:03:18;21.90;55.30
53268;DHT22;39156;51.176;6.738;2023-06-22T03:05:44;21.90;55.50
53268;DHT22;39156;51.176;6.738;2023-06-22T03:08:10;21.90;55.60
53268;DHT22;39156;51.176;6.738;2023-06-22T03:10:36;21.90;55.70
53268;DHT22;39156;51.176;6.738;2023-06-22T03:13:02;21.90;56.50
53268;DHT22;39156;51.176;6.738;2023-06-22T03:15:28;21.90;56.00
53268;DHT22;39156;51.176;6.738;2023-06-22T03:17:58;22.00;56.30
53268;DHT22;39156;51.176;6.738;2023-06-22T03:20:23;21.90;56.50
53268;DHT22;39156;51.176;6.738;2023-06-22T03:22:50;21.90;56.60
53268;DHT22;39156;51.176;6.738;2023-06-22T03:25:16;21.90;56.80
53268;DHT22;39156;51.176;6.738;2023-06-22T03:27:42;21.90;57.00
53268;DHT22;39156;51.176;6.738;2023-06-22T03:30:11;21.90;57.10
53268;DHT22;39156;51.176;6.738;2023-06-22T03:32:37;21.90;57.20
53268;DHT22;39156;51.176;6.738;2023-06-22T03:35:03;21.80;57.20
53268;DHT22;39156;51.176;6.738;2023-06-22T03:37:29;21.80;57.40
53268;DHT22;39156;51.176;6.738;2023-06-22T03:39:55;21.80;57.50
53268;DHT22;39156;51.176;6.738;2023-06-22T03:42:20;21.80;57.50
53268;DHT22;39156;51.176;6.738;2023-06-22T03:44:46;21.70;57.50
53268;DHT22;39156;51.176;6.738;2023-06-22T03:47:12;21.70;58.30
53268;DHT22;39156;51.176;6.738;2023-06-22T03:49:38;21.70;57.80
53268;DHT22;39156;51.176;6.738;2023-06-22T03:52:04;21.70;58.00
53268;DHT22;39156;51.176;6.738;2023-06-22T03:54:30;21.70;58.10
53268;DHT22;39156;51.176;6.738;2023-06-22T03:56:57;21.70;57.10
53268;DHT22;39156;51.176;6.738;2023-06-22T03:59:23;21.60;58.10
53268;DHT22;39156;51.176;6.738;2023-06-22T04:01:49;21.60;58.30
53268;DHT22;39156;51.176;6.738;2023-06-22T04:04:16;21.60;58.40
53268;DHT22;39156;51.176;6.738;2023-06-22T04:06:43;21.60;58.50
53268;DHT22;39156;51.176;6.738;2023-06-22T04:09:08;21.60;58.70
53268;DHT22;39156;51.176;6.738;2023-06-22T04:11:34;21.60;59.50
53268;DHT22;39156;51.176;6.738;2023-06-22T04:14:00;21.50;58.90
53268;DHT22;39156;51.176;6.738;2023-06-22T04:16:25;21.50;59.00
53268;DHT22;39156;51.176;6.738;2023-06-22T04:18:51;21.50;59.10
53268;DHT22;39156;51.176;6.738;2023-06-22T04:21:17;21.50;59.10
53268;DHT22;39156;51.176;6.738;2023-06-22T04:23:45;21.50;59.30
53268;DHT22;39156;51.176;6.738;2023-06-22T04:26:12;21.50;59.40
53268;DHT22;39156;51.176;6.738;2023-06-22T04:28:39;21.50;59.40
53268;DHT22;39156;51.176;6.738;2023-06-22T04:31:04;21.50;59.40
53268;DHT22;39156;51.176;6.738;2023-06-22T04:33:31;21.60;59.40
53268;DHT22;39156;51.176;6.738;2023-06-22T04:35:57;21.60;59.50
53268;DHT22;39156;51.176;6.738;2023-06-22T04:38:23;21.60;59.40
53268;DHT22;39156;51.176;6.738;2023-06-22T04:40:50;21.60;58.30
53268;DHT22;39156;51.176;6.738;2023-06-22T04:43:16;21.70;59.20
53268;DHT22;39156;51.176;6.738;2023-06-22T04:45:42;21.60;58.10
53268;DHT22;39156;51.176;6.738;2023-06-22T04:48:07;21.60;59.10
53268;DHT22;39156;51.176;6.738;2023-06-22T04:50:38;21.70;59.20
53268;DHT22;39156;51.176;6.738;2023-06-22T04:53:04;21.70;59.30
53268;DHT22;39156;51.176;6.738;2023-06-22T04:55:31;21.70;59.40
53268;DHT22;39156;51.176;6.738;2023-06-22T04:57:57;21.70;59.40
53268;DHT22;39156;51.176;6.738;2023-06-22T05:00:30;21.70;59.30
53268;DHT22;39156;51.176;6.738;2023-06-22T05:02:56;21.70;59.30
53268;DHT22;39156;51.176;6.738;2023-06-22T05:05:23;21.70;58.30
53268;DHT22;39156;51.176;6.738;2023-06-22T05:07:50;21.80;59.20
53268;DHT22;39156;51.176;6.738;2023-06-22T05:10:19;21.80;58.30
53268;DHT22;39156;51.176;6.738;2023-06-22T05:12:46;21.80;59.20
53268;DHT22;39156;51.176;6.738;2023-06-22T05:15:11;21.70;59.20
53268;DHT22;39156;51.176;6.738;2023-06-22T05:17:37;21.70;59.20
53268;DHT22;39156;51.176;6.738;2023-06-22T05:20:11;21.90;59.30
53268;DHT22;39156;51.176;6.738;2023-06-22T05:22:38;21.80;59.20
53268;DHT22;39156;51.176;6.738;2023-06-22T05:25:08;21.80;59.10
53268;DHT22;39156;51.176;6.738;2023-06-22T05:27:34;21.90;59.30
53268;DHT22;39156;51.176;6.738;2023-06-22T05:30:06;21.90;59.10
53268;DHT22;39156;51.176;6.738;2023-06-22T05:32:32;21.90;59.10
53268;DHT22;39156;51.176;6.738;2023-06-22T05:34:59;21.90;59.00
53268;DHT22;39156;51.176;6.738;2023-06-22T05:37:25;22.00;59.00
53268;DHT22;39156;51.176;6.738;2023-06-22T05:39:51;22.00;58.90
53268;DHT22;39156;51.176;6.738;2023-06-22T05:42:17;22.00;58.80
53268;DHT22;39156;51.176;6.738;2023-06-22T05:44:42;22.00;58.70
53268;DHT22;39156;51.176;6.738;2023-06-22T05:47:08;22.00;58.60
53268;DHT22;39156;51.176;6.738;2023-06-22T05:49:34;22.00;58.50
53268;DHT22;39156;51.176;6.738;2023-06-22T05:51:59;22.10;58.50
53268;DHT22;39156;51.176;6.738;2023-06-22T05:54:27;22.10;58.50
53268;DHT22;39156;51.176;6.738;2023-06-22T05:56:53;22.00;58.50
53268;DHT22;39156;51.176;6.738;2023-06-22T05:59:19;22.10;58.70
53268;DHT22;39156;51.176;6.738;2023-06-22T06:01:45;22.20;59.20
53268;DHT22;39156;51.176;6.738;2023-06-22T06:04:16;22.10;59.20
53268;DHT22;39156;51.176;6.738;2023-06-22T06:06:42;22.10;59.80
53268;DHT22;39156;51.176;6.738;2023-06-22T06:09:08;22.10;59.10
53268;DHT22;39156;51.176;6.738;2023-06-22T06:11:34;22.20;59.10
53268;DHT22;39156;51.176;6.738;2023-06-22T06:13:59;22.20;59.00
53268;DHT22;39156;51.176;6.738;2023-06-22T06:16:25;22.20;59.00
53268;DHT22;39156;51.176;6.738;2023-06-22T06:18:51;22.20;59.10
53268;DHT22;39156;51.176;6.738;2023-06-22T06:21:18;22.20;59.20
53268;DHT22;39156;51.176;6.738;2023-06-22T06:23:44;22.20;59.20
53268;DHT22;39156;51.176;6.738;2023-06-22T06:26:10;22.20;59.20
53268;DHT22;39156;51.176;6.738;2023-06-22T06:28:35;22.20;59.10
53268;DHT22;39156;51.176;6.738;2023-06-22T06:31:01;22.20;58.90
53268;DHT22;39156;51.176;6.738;2023-06-22T06:33:27;22.20;59.00
53268;DHT22;39156;51.176;6.738;2023-06-22T06:35:52;22.20;58.60
53268;DHT22;39156;51.176;6.738;2023-06-22T06:38:18;22.20;58.60
53268;DHT22;39156;51.176;6.738;2023-06-22T06:40:44;22.30;58.70
53268;DHT22;39156;51.176;6.738;2023-06-22T06:43:10;22.30;59.10
53268;DHT22;39156;51.176;6.738;2023-06-22T06:45:36;22.30;58.90
53268;DHT22;39156;51.176;6.738;2023-06-22T06:48:02;22.30;59.80
53268;DHT22;39156;51.176;6.738;2023-06-22T06:50:28;22.30;60.00
53268;DHT22;39156;51.176;6.738;2023-06-22T06:52:53;22.30;60.50
53268;DHT22;39156;51.176;6.738;2023-06-22T06:55:20;22.30;60.60
53268;DHT22;39156;51.176;6.738;2023-06-22T06:57:46;22.20;60.70
53268;DHT22;39156;51.176;6.738;2023-06-22T07:00:14;22.20;61.50
53268;DHT22;39156;51.176;6.738;2023-06-22T07:02:42;22.10;61.50
53268;DHT22;39156;51.176;6.738;2023-06-22T07:05:10;22.10;61.90
53268;DHT22;39156;51.176;6.738;2023-06-22T07:07:36;22.00;62.60
53268;DHT22;39156;51.176;6.738;2023-06-22T07:10:02;22.00;62.80
53268;DHT22;39156;51.176;6.738;2023-06-22T07:12:29;22.00;62.80
53268;DHT22;39156;51.176;6.738;2023-06-22T07:15:02;21.90;63.20
53268;DHT22;39156;51.176;6.738;2023-06-22T07:17:33;21.80;64.20
53268;DHT22;39156;51.176;6.738;2023-06-22T07:20:00;22.00;64.00
53268;DHT22;39156;51.176;6.738;2023-06-22T07:22:26;22.00;63.80
53268;DHT22;39156;51.176;6.738;2023-06-22T07:24:52;22.00;64.60
53268;DHT22;39156;51.176;6.738;2023-06-22T07:27:18;22.00;63.80
53268;DHT22;39156;51.176;6.738;2023-06-22T07:29:45;22.00;63.90
53268;DHT22;39156;51.176;6.738;2023-06-22T07:32:11;22.00;64.30
53268;DHT22;39156;51.176;6.738;2023-06-22T07:34:37;22.00;64.20
53268;DHT22;39156;51.176;6.738;2023-06-22T07:37:02;22.00;64.60
53268;DHT22;39156;51.176;6.738;2023-06-22T07:39:30;22.00;65.00
53268;DHT22;39156;51.176;6.738;2023-06-22T07:41:55;22.00;65.20
53268;DHT22;39156;51.176;6.738;2023-06-22T07:44:21;21.90;65.80
53268;DHT22;39156;51.176;6.738;2023-06-22T07:46:47;22.00;66.30
53268;DHT22;39156;51.176;6.738;2023-06-22T07:49:12;22.00;66.40
53268;DHT22;39156;51.176;6.738;2023-06-22T07:51:38;22.00;66.90
53268;DHT22;39156;51.176;6.738;2023-06-22T07:54:04;22.20;68.60
53268;DHT22;39156;51.176;6.738;2023-06-22T07:56:30;22.50;68.30
53268;DHT22;39156;51.176;6.738;2023-06-22T07:58:55;22.80;68.90
53268;DHT22;39156;51.176;6.738;2023-06-22T08:01:23;23.20;68.80
53268;DHT22;39156;51.176;6.738;2023-06-22T08:03:49;23.70;68.30
53268;DHT22;39156;51.176;6.738;2023-06-22T08:06:15;24.20;67.20
53268;DHT22;39156;51.176;6.738;2023-06-22T08:08:42;24.50;66.20
53268;DHT22;39156;51.176;6.738;2023-06-22T08:11:08;25.00;65.90
53268;DHT22;39156;51.176;6.738;2023-06-22T08:13:34;25.40;65.20
53268;DHT22;39156;51.176;6.738;2023-06-22T08:16:00;25.90;65.10
53268;DHT22;39156;51.176;6.738;2023-06-22T08:18:26;26.40;64.30
53268;DHT22;39156;51.176;6.738;2023-06-22T08:20:52;26.90;62.80
53268;DHT22;39156;51.176;6.738;2023-06-22T08:23:17;27.30;61.80
53268;DHT22;39156;51.176;6.738;2023-06-22T08:25:43;27.60;60.70
53268;DHT22;39156;51.176;6.738;2023-06-22T08:28:09;27.90;59.90
53268;DHT22;39156;51.176;6.738;2023-06-22T08:30:35;28.00;58.30
53268;DHT22;39156;51.176;6.738;2023-06-22T08:33:00;28.10;57.40
53268;DHT22;39156;51.176;6.738;2023-06-22T08:35:26;28.10;57.20
53268;DHT22;39156;51.176;6.738;2023-06-22T08:37:52;28.10;57.90
53268;DHT22;39156;51.176;6.738;2023-06-22T08:40:20;28.00;57.10
53268;DHT22;39156;51.176;6.738;2023-06-22T08:42:46;27.90;57.30
53268;DHT22;39156;51.176;6.738;2023-06-22T08:45:13;28.00;57.80
53268;DHT22;39156;51.176;6.738;2023-06-22T08:47:40;28.10;57.80
53268;DHT22;39156;51.176;6.738;2023-06-22T08:50:10;28.30;57.90
53268;DHT22;39156;51.176;6.738;2023-06-22T08:52:36;28.60;58.10
53268;DHT22;39156;51.176;6.738;2023-06-22T08:55:03;28.80;56.90
53268;DHT22;39156;51.176;6.738;2023-06-22T08:57:29;29.10;56.00
53268;DHT22;39156;51.176;6.738;2023-06-22T08:59:56;29.30;55.70
53268;DHT22;39156;51.176;6.738;2023-06-22T09:02:27;29.50;55.60
53268;DHT22;39156;51.176;6.738;2023-06-22T09:04:57;29.70;55.10
53268;DHT22;39156;51.176;6.738;2023-06-22T09:07:23;29.80;54.50
53268;DHT22;39156;51.176;6.738;2023-06-22T09:09:50;30.10;54.40
53268;DHT22;39156;51.176;6.738;2023-06-22T09:12:17;30.30;53.70
53268;DHT22;39156;51.176;6.738;2023-06-22T09:14:45;30.40;53.10
53268;DHT22;39156;51.176;6.738;2023-06-22T09:17:12;30.40;52.30
53268;DHT22;39156;51.176;6.738;2023-06-22T09:19:38;30.40;52.00
53268;DHT22;39156;51.176;6.738;2023-06-22T09:22:04;30.40;51.50
53268;DHT22;39156;51.176;6.738;2023-06-22T09:24:32;30.30;52.00
53268;DHT22;39156;51.176;6.738;2023-06-22T09:26:57;30.40;52.00
53268;DHT22;39156;51.176;6.738;2023-06-22T09:29:23;30.40;51.90
53268;DHT22;39156;51.176;6.738;2023-06-22T09:31:49;30.50;52.20
53268;DHT22;39156;51.176;6.738;2023-06-22T09:34:14;30.50;51.60
53268;DHT22;39156;51.176;6.738;2023-06-22T09:36:41;30.60;51.20
53268;DHT22;39156;51.176;6.738;2023-06-22T09:39:07;30.60;50.20
53268;DHT22;39156;51.176;6.738;2023-06-22T09:41:32;30.70;49.40
53268;DHT22;39156;51.176;6.738;2023-06-22T09:43:58;30.70;48.60
53268;DHT22;39156;51.176;6.738;2023-06-22T09:46:24;30.70;49.00
53268;DHT22;39156;51.176;6.738;2023-06-22T09:48:53;30.70;49.00
53268;DHT22;39156;51.176;6.738;2023-06-22T09:51:19;30.80;48.60
53268;DHT22;39156;51.176;6.738;2023-06-22T09:53:49;30.90;48.30
53268;DHT22;39156;51.176;6.738;2023-06-22T09:56:15;30.90;47.60
53268;DHT22;39156;51.176;6.738;2023-06-22T09:58:45;30.90;47.30
53268;DHT22;39156;51.176;6.738;2023-06-22T10:01:12;30.90;46.80
53268;DHT22;39156;51.176;6.738;2023-06-22T10:03:40;30.90;46.70
53268;DHT22;39156;51.176;6.738;2023-06-22T10:06:07;30.80;46.60
53268;DHT22;39156;51.176;6.738;2023-06-22T10:08:33;30.70;46.40
53268;DHT22;39156;51.176;6.738;2023-06-22T10:10:59;30.60;46.70
53268;DHT22;39156;51.176;6.738;2023-06-22T10:13:24;30.60;47.10
53268;DHT22;39156;51.176;6.738;2023-06-22T10:15:50;30.50;47.30
53268;DHT22;39156;51.176;6.738;2023-06-22T10:18:18;30.50;47.30
53268;DHT22;39156;51.176;6.738;2023-06-22T10:20:49;30.50;47.70
53268;DHT22;39156;51.176;6.738;2023-06-22T10:23:17;30.40;47.60
53268;DHT22;39156;51.176;6.738;2023-06-22T10:25:43;30.20;47.40
53268;DHT22;39156;51.176;6.738;2023-06-22T10:28:08;30.20;47.40
53268;DHT22;39156;51.176;6.738;2023-06-22T10:30:34;30.10;47.70
53268;DHT22;39156;51.176;6.738;2023-06-22T10:32:59;30.00;47.60
53268;DHT22;39156;51.176;6.738;2023-06-22T10:35:25;29.90;47.90
53268;DHT22;39156;51.176;6.738;2023-06-22T10:37:51;29.70;47.70
53268;DHT22;39156;51.176;6.738;2023-06-22T10:40:17;29.70;48.10
53268;DHT22;39156;51.176;6.738;2023-06-22T10:42:44;29.50;48.50
53268;DHT22;39156;51.176;6.738;2023-06-22T10:45:10;29.40;49.50
53268;DHT22;39156;51.176;6.738;2023-06-22T10:47:36;29.30;49.50
53268;DHT22;39156;51.176;6.738;2023-06-22T10:50:02;29.20;51.60
53268;DHT22;39156;51.176;6.738;2023-06-22T10:52:28;29.10;52.10
53268;DHT22;39156;51.176;6.738;2023-06-22T10:54:54;29.00;53.20
53268;DHT22;39156;51.176;6.738;2023-06-22T10:57:20;28.80;54.80
53268;DHT22;39156;51.176;6.738;2023-06-22T10:59:47;28.80;53.80
53268;DHT22;39156;51.176;6.738;2023-06-22T11:02:12;28.60;55.10
53268;DHT22;39156;51.176;6.738;2023-06-22T11:04:38;28.40;55.00
53268;DHT22;39156;51.176;6.738;2023-06-22T11:07:04;28.30;55.90
53268;DHT22;39156;51.176;6.738;2023-06-22T11:09:30;28.20;57.70
53268;DHT22;39156;51.176;6.738;2023-06-22T11:11:56;28.10;56.30
53268;DHT22;39156;51.176;6.738;2023-06-22T11:14:23;27.90;58.40
53268;DHT22;39156;51.176;6.738;2023-06-22T11:16:49;27.70;58.80
53268;DHT22;39156;51.176;6.738;2023-06-22T11:19:15;27.60;58.30
53268;DHT22;39156;51.176;6.738;2023-06-22T11:21:41;27.50;59.20
53268;DHT22;39156;51.176;6.738;2023-06-22T11:24:07;27.30;59.80
53268;DHT22;39156;51.176;6.738;2023-06-22T11:26:33;27.10;59.60
53268;DHT22;39156;51.176;6.738;2023-06-22T11:28:59;27.00;59.40
53268;DHT22;39156;51.176;6.738;2023-06-22T11:31:25;26.80;60.00
53268;DHT22;39156;51.176;6.738;2023-06-22T11:33:50;26.60;60.10
53268;DHT22;39156;51.176;6.738;2023-06-22T11:36:16;26.40;61.60
53268;DHT22;39156;51.176;6.738;2023-06-22T11:38:43;26.20;62.10
53268;DHT22;39156;51.176;6.738;2023-06-22T11:41:09;26.10;63.00
53268;DHT22;39156;51.176;6.738;2023-06-22T11:43:35;25.90;63.70
53268;DHT22;39156;51.176;6.738;2023-06-22T11:46:05;25.70;65.10
53268;DHT22;39156;51.176;6.738;2023-06-22T11:48:31;25.50;66.00
53268;DHT22;39156;51.176;6.738;2023-06-22T11:50:57;25.30;66.10
53268;DHT22;39156;51.176;6.738;2023-06-22T11:53:24;25.10;66.70
53268;DHT22;39156;51.176;6.738;2023-06-22T11:55:51;24.90;68.00
53268;DHT22;39156;51.176;6.738;2023-06-22T11:58:18;24.80;67.70
53268;DHT22;39156;51.176;6.738;2023-06-22T12:00:43;24.70;68.70
53268;DHT22;39156;51.176;6.738;2023-06-22T12:03:10;24.50;68.90
53268;DHT22;39156;51.176;6.738;2023-06-22T12:05:36;24.50;66.60
53268;DHT22;39156;51.176;6.738;2023-06-22T12:08:02;24.40;69.70
53268;DHT22;39156;51.176;6.738;2023-06-22T12:10:28;24.40;69.80
53268;DHT22;39156;51.176;6.738;2023-06-22T12:12:54;24.40;70.00
53268;DHT22;39156;51.176;6.738;2023-06-22T12:15:20;24.40;70.50
53268;DHT22;39156;51.176;6.738;2023-06-22T12:17:46;24.40;70.60
53268;DHT22;39156;51.176;6.738;2023-06-22T12:20:13;24.40;70.60
53268;DHT22;39156;51.176;6.738;2023-06-22T12:22:39;24.40;70.30
53268;DHT22;39156;51.176;6.738;2023-06-22T12:25:06;24.40;69.90
53268;DHT22;39156;51.176;6.738;2023-06-22T12:27:33;24.50;70.40
53268;DHT22;39156;51.176;6.738;2023-06-22T12:29:59;24.40;70.70
53268;DHT22;39156;51.176;6.738;2023-06-22T12:32:25;24.40;68.50
53268;DHT22;39156;51.176;6.738;2023-06-22T12:34:51;24.30;70.60
53268;DHT22;39156;51.176;6.738;2023-06-22T12:37:17;24.30;71.30
53268;DHT22;39156;51.176;6.738;2023-06-22T12:39:43;24.30;72.20
53268;DHT22;39156;51.176;6.738;2023-06-22T12:42:10;24.20;72.30
53268;DHT22;39156;51.176;6.738;2023-06-22T12:44:38;24.30;72.90
53268;DHT22;39156;51.176;6.738;2023-06-22T12:47:07;24.30;72.50
53268;DHT22;39156;51.176;6.738;2023-06-22T12:49:37;24.40;72.80
53268;DHT22;39156;51.176;6.738;2023-06-22T12:52:03;24.50;72.40
53268;DHT22;39156;51.176;6.738;2023-06-22T12:54:33;24.60;72.50
53268;DHT22;39156;51.176;6.738;2023-06-22T12:56:59;24.70;72.00
53268;DHT22;39156;51.176;6.738;2023-06-22T12:59:24;24.80;71.30
53268;DHT22;39156;51.176;6.738;2023-06-22T13:01:50;24.90;71.10
53268;DHT22;39156;51.176;6.738;2023-06-22T13:04:16;24.90;70.50
53268;DHT22;39156;51.176;6.738;2023-06-22T13:06:44;25.00;70.50
53268;DHT22;39156;51.176;6.738;2023-06-22T13:09:14;25.00;70.30
53268;DHT22;39156;51.176;6.738;2023-06-22T13:11:41;25.00;70.80
53268;DHT22;39156;51.176;6.738;2023-06-22T13:14:10;24.90;70.20
53268;DHT22;39156;51.176;6.738;2023-06-22T13:16:36;24.80;70.90
53268;DHT22;39156;51.176;6.738;2023-06-22T13:19:01;24.80;71.30
53268;DHT22;39156;51.176;6.738;2023-06-22T13:21:27;24.80;71.20
53268;DHT22;39156;51.176;6.738;2023-06-22T13:23:53;24.80;71.30
53268;DHT22;39156;51.176;6.738;2023-06-22T13:26:20;24.80;71.70
53268;DHT22;39156;51.176;6.738;2023-06-22T13:28:46;24.80;71.30
53268;DHT22;39156;51.176;6.738;2023-06-22T13:31:12;24.90;71.00
53268;DHT22;39156;51.176;6.738;2023-06-22T13:33:38;24.90;71.30
53268;DHT22;39156;51.176;6.738;2023-06-22T13:36:06;24.90;71.10
53268;DHT22;39156;51.176;6.738;2023-06-22T13:38:34;24.90;71.10
53268;DHT22;39156;51.176;6.738;2023-06-22T13:41:04;25.00;71.50
53268;DHT22;39156;51.176;6.738;2023-06-22T13:43:29;24.90;71.50
53268;DHT22;39156;51.176;6.738;2023-06-22T13:45:55;25.00;70.20
53268;DHT22;39156;51.176;6.738;2023-06-22T13:48:21;25.00;71.20
53268;DHT22;39156;51.176;6.738;2023-06-22T13:50:48;25.00;71.00
53268;DHT22;39156;51.176;6.738;2023-06-22T13:53:14;24.90;71.10
53268;DHT22;39156;51.176;6.738;2023-06-22T13:55:40;24.90;71.20
53268;DHT22;39156;51.176;6.738;2023-06-22T13:58:06;24.90;71.30
53268;DHT22;39156;51.176;6.738;2023-06-22T14:00:32;24.80;71.10
53268;DHT22;39156;51.176;6.738;2023-06-22T14:02:58;24.90;71.40
53268;DHT22;39156;51.176;6.738;2023-06-22T14:05:27;24.80;71.00
53268;DHT22;39156;51.176;6.738;2023-06-22T14:07:52;24.80;71.40
53268;DHT22;39156;51.176;6.738;2023-06-22T14:10:18;24.80;71.40
53268;DHT22;39156;51.176;6.738;2023-06-22T14:12:44;24.80;71.40
53268;DHT22;39156;51.176;6.738;2023-06-22T14:15:10;24.70;71.50
53268;DHT22;39156;51.176;6.738;2023-06-22T14:17:35;24.80;71.90
53268;DHT22;39156;51.176;6.738;2023-06-22T14:20:01;24.80;71.30
53268;DHT22;39156;51.176;6.738;2023-06-22T14:22:28;24.80;71.30
53268;DHT22;39156;51.176;6.738;2023-06-22T14:24:55;24.80;71.00
53268;DHT22;39156;51.176;6.738;2023-06-22T14:27:23;24.80;70.70
53268;DHT22;39156;51.176;6.738;2023-06-22T14:29:48;24.80;70.70
53268;DHT22;39156;51.176;6.738;2023-06-22T14:32:14;24.70;70.60
53268;DHT22;39156;51.176;6.738;2023-06-22T14:34:40;24.60;70.30
53268;DHT22;39156;51.176;6.738;2023-06-22T14:37:06;24.60;70.50
53268;DHT22;39156;51.176;6.738;2023-06-22T14:39:33;24.50;70.70
53268;DHT22;39156;51.176;6.738;2023-06-22T14:41:58;24.40;70.90
53268;DHT22;39156;51.176;6.738;2023-06-22T14:44:26;24.30;70.90
53268;DHT22;39156;51.176;6.738;2023-06-22T14:46:54;24.20;71.20
53268;DHT22;39156;51.176;6.738;2023-06-22T14:49:21;24.10;71.30
53268;DHT22;39156;51.176;6.738;2023-06-22T14:51:46;24.10;71.40
53268;DHT22;39156;51.176;6.738;2023-06-22T14:54:12;24.00;71.40
53268;DHT22;39156;51.176;6.738;2023-06-22T14:56:38;24.00;71.40
53268;DHT22;39156;51.176;6.738;2023-06-22T14:59:03;23.90;71.70
53268;DHT22;39156;51.176;6.738;2023-06-22T15:01:29;23.90;71.90
53268;DHT22;39156;51.176;6.738;2023-06-22T15:03:55;23.90;72.00
53268;DHT22;39156;51.176;6.738;2023-06-22T15:06:21;23.80;72.00
53268;DHT22;39156;51.176;6.738;2023-06-22T15:08:47;23.80;72.20
53268;DHT22;39156;51.176;6.738;2023-06-22T15:11:12;23.90;71.50
53268;DHT22;39156;51.176;6.738;2023-06-22T15:13:40;23.90;72.20
53268;DHT22;39156;51.176;6.738;2023-06-22T15:16:06;23.90;72.20
53268;DHT22;39156;51.176;6.738;2023-06-22T15:18:32;23.90;71.90
53268;DHT22;39156;51.176;6.738;2023-06-22T15:21:01;23.90;71.90
53268;DHT22;39156;51.176;6.738;2023-06-22T15:23:29;23.90;71.30
53268;DHT22;39156;51.176;6.738;2023-06-22T15:25:58;23.90;71.40
53268;DHT22;39156;51.176;6.738;2023-06-22T15:28:28;23.90;71.40
53268;DHT22;39156;51.176;6.738;2023-06-22T15:30:54;23.80;71.20
53268;DHT22;39156;51.176;6.738;2023-06-22T15:33:20;23.80;71.40